sensor_id;sensor_type;location;lat;lon;timestamp;pressure;altitude;pressure_sealevel;temperature;humidity
68941;BME280;55982;51.476;7.552;2023-08-06T00:00:22;98803.25;;;15.67;100.00
68941;BME280;55982;51.476;7.552;2023-08-06T00:02:48;98796.25;;;15.66;100.00
68941;BME280;55982;51.476;7.552;2023-08-06T00:05:14;98802.50;;;15.65;100.00
68941;BME280;55982;51.476;7.552;2023-08-06T00:07:49;98808.28;;;15.70;100.00
68941;BME280;55982;51.476;7.552;2023-08-06T00:10:16;98801.34;;;15.69;100.00
68941;BME280;55982;51.476;7.552;2023-08-06T00:12:41;98798.28;;;15.63;100.00
68941;BME280;55982;51.476;7.552;2023-08-06T00:15:07;98793.97;;;15.49;100.00
68941;BME280;55982;51.476;7.552;2023-08-06T00:17:33;98787.66;;;15.51;100.00
68941;BME280;55982;51.476;7.552;2023-08-06T00:19:59;98783.00;;;15.55;100.00
68941;BME280;55982;51.476;7.552;2023-08-06T00:22:29;98790.16;;;15.53;100.00
68941;BME280;55982;51.476;7.552;2023-08-06T00:24:55;98784.91;;;15.53;100.00
68941;BME280;55982;51.476;7.552;2023-08-06T00:27:22;98785.00;;;15.51;100.00
68941;BME280;55982;51.476;7.552;2023-08-06T00:29:48;98785.13;;;15.50;100.00
68941;BME280;55982;51.476;7.552;2023-08-06T00:32:13;98784.16;;;15.51;100.00
68941;BME280;55982;51.476;7.552;2023-08-06T00:34:38;98786.59;;;15.54;100.00
68941;BME280;55982;51.476;7.552;2023-08-06T00:37:04;98781.31;;;15.54;100.00
68941;BME280;55982;51.476;7.552;2023-08-06T00:39:29;98777.72;;;15.55;100.00
68941;BME280;55982;51.476;7.552;2023-08-06T00:41:54;98774.13;;;15.56;100.00
68941;BME280;55982;51.476;7.552;2023-08-06T00:44:20;98773.72;;;15.49;100.00
68941;BME280;55982;51.476;7.552;2023-08-06T00:46:45;98767.22;;;15.42;100.00
68941;BME280;55982;51.476;7.552;2023-08-06T00:49:11;98770.31;;;15.35;100.00
68941;BME280;55982;51.476;7.552;2023-08-06T00:51:36;98770.53;;;15.32;100.00
68941;BME280;55982;51.476;7.552;2023-08-06T00:54:02;98765.50;;;15.29;100.00
68941;BME280;55982;51.476;7.552;2023-08-06T00:56:28;98771.69;;;15.28;100.00
68941;BME280;55982;51.476;7.552;2023-08-06T00:58:53;98763.78;;;15.28;100.00
68941;BME280;55982;51.476;7.552;2023-08-06T01:01:19;98768.44;;;15.24;100.00
68941;BME280;55982;51.476;7.552;2023-08-06T01:03:44;98764.63;;;15.28;100.00
68941;BME280;55982;51.476;7.552;2023-08-06T01:06:10;98752.41;;;15.27;100.00
68941;BME280;55982;51.476;7.552;2023-08-06T01:08:42;98747.25;;;15.26;100.00
68941;BME280;55982;51.476;7.552;2023-08-06T01:11:33;98741.03;;;15.27;100.00
68941;BME280;55982;51.476;7.552;2023-08-06T01:14:18;98740.81;;;15.30;100.00
68941;BME280;55982;51.476;7.552;2023-08-06T01:16:50;98739.75;;;15.32;100.00
68941;BME280;55982;51.476;7.552;2023-08-06T01:19:19;98735.00;;;15.37;100.00
68941;BME280;55982;51.476;7.552;2023-08-06T01:21:44;98733.41;;;15.35;100.00
68941;BME280;55982;51.476;7.552;2023-08-06T01:24:10;98729.84;;;15.36;100.00
68941;BME280;55982;51.476;7.552;2023-08-06T01:27:09;98730.06;;;15.33;100.00
68941;BME280;55982;51.476;7.552;2023-08-06T01:29:47;98722.03;;;15.22;100.00
68941;BME280;55982;51.476;7.552;2023-08-06T01:32:14;98722.03;;;15.22;100.00
68941;BME280;55982;51.476;7.552;2023-08-06T01:34:43;98727.31;;;15.22;100.00
68941;BME280;55982;51.476;7.552;2023-08-06T01:37:11;98726.69;;;15.31;100.00
68941;BME280;55982;51.476;7.552;2023-08-06T01:39:36;98719.06;;;15.39;100.00
68941;BME280;55982;51.476;7.552;2023-08-06T01:42:02;98723.63;;;15.37;100.00
68941;BME280;55982;51.476;7.552;2023-08-06T01:44:29;98725.97;;;15.41;100.00
68941;BME280;55982;51.476;7.552;2023-08-06T01:46:55;98729.22;;;15.45;100.00
68941;BME280;55982;51.476;7.552;2023-08-06T01:49:20;98715.50;;;15.40;100.00
68941;BME280;55982;51.476;7.552;2023-08-06T01:51:46;98729.22;;;15.45;100.00
68941;BME280;55982;51.476;7.552;2023-08-06T01:54:11;98722.44;;;15.41;100.00
68941;BME280;55982;51.476;7.552;2023-08-06T01:56:36;98720.59;;;15.43;100.00
68941;BME280;55982;51.476;7.552;2023-08-06T01:59:02;98725.66;;;15.46;100.00
68941;BME280;55982;51.476;7.552;2023-08-06T02:01:27;98728.38;;;15.57;100.00
68941;BME280;55982;51.476;7.552;2023-08-06T02:03:53;98721.50;;;15.54;100.00
68941;BME280;55982;51.476;7.552;2023-08-06T02:06:18;98709.84;;;15.46;100.00
68941;BME280;55982;51.476;7.552;2023-08-06T02:08:44;98707.72;;;15.51;100.00
68941;BME280;55982;51.476;7.552;2023-08-06T02:11:09;98715.94;;;15.46;100.00
68941;BME280;55982;51.476;7.552;2023-08-06T02:13:34;98713.41;;;15.45;100.00
68941;BME280;55982;51.476;7.552;2023-08-06T02:16:00;98716.34;;;15.53;100.00
68941;BME280;55982;51.476;7.552;2023-08-06T02:18:25;98715.31;;;15.55;100.00
68941;BME280;55982;51.476;7.552;2023-08-06T02:20:57;98716.59;;;15.50;100.00
68941;BME280;55982;51.476;7.552;2023-08-06T02:23:23;98711.31;;;15.50;100.00
68941;BME280;55982;51.476;7.552;2023-08-06T02:25:48;98704.78;;;15.43;100.00
68941;BME280;55982;51.476;7.552;2023-08-06T02:28:14;98706.00;;;15.37;100.00
68941;BME280;55982;51.476;7.552;2023-08-06T02:30:50;98692.72;;;15.39;100.00
68941;BME280;55982;51.476;7.552;2023-08-06T02:33:15;98692.72;;;15.39;100.00
68941;BME280;55982;51.476;7.552;2023-08-06T02:35:41;98686.44;;;15.54;100.00
68941;BME280;55982;51.476;7.552;2023-08-06T02:38:06;98679.69;;;15.50;100.00
68941;BME280;55982;51.476;7.552;2023-08-06T02:40:31;98669.56;;;15.44;100.00
68941;BME280;55982;51.476;7.552;2023-08-06T02:42:57;98672.50;;;15.39;100.00
68941;BME280;55982;51.476;7.552;2023-08-06T02:45:25;98671.75;;;15.37;100.00
68941;BME280;55982;51.476;7.552;2023-08-06T02:47:50;98672.59;;;15.38;100.00
68941;BME280;55982;51.476;7.552;2023-08-06T02:50:16;98669.25;;;15.36;100.00
68941;BME280;55982;51.476;7.552;2023-08-06T02:52:41;98666.84;;;15.33;100.00
68941;BME280;55982;51.476;7.552;2023-08-06T02:55:07;98666.09;;;15.31;100.00
68941;BME280;55982;51.476;7.552;2023-08-06T02:57:32;98650.19;;;15.20;100.00
68941;BME280;55982;51.476;7.552;2023-08-06T02:59:58;98652.72;;;15.21;100.00
68941;BME280;55982;51.476;7.552;2023-08-06T03:02:23;98655.25;;;15.23;100.00
68941;BME280;55982;51.476;7.552;2023-08-06T03:04:49;98648.50;;;15.19;100.00
68941;BME280;55982;51.476;7.552;2023-08-06T03:07:14;98652.50;;;15.24;100.00
68941;BME280;55982;51.476;7.552;2023-08-06T03:09:39;98649.13;;;15.22;100.00
68941;BME280;55982;51.476;7.552;2023-08-06T03:12:05;98650.28;;;15.18;100.00
68941;BME280;55982;51.476;7.552;2023-08-06T03:14:30;98644.63;;;15.12;100.00
68941;BME280;55982;51.476;7.552;2023-08-06T03:16:56;98649.06;;;15.11;100.00
68941;BME280;55982;51.476;7.552;2023-08-06T03:19:21;98647.88;;;15.03;100.00
68941;BME280;55982;51.476;7.552;2023-08-06T03:21:46;98641.38;;;14.96;100.00
68941;BME280;55982;51.476;7.552;2023-08-06T03:24:13;98644.66;;;14.87;100.00
68941;BME280;55982;51.476;7.552;2023-08-06T03:26:39;98637.38;;;14.78;100.00
68941;BME280;55982;51.476;7.552;2023-08-06T03:29:04;98640.75;;;14.80;100.00
68941;BME280;55982;51.476;7.552;2023-08-06T03:31:30;98634.72;;;14.78;100.00
68941;BME280;55982;51.476;7.552;2023-08-06T03:33:55;98638.00;;;14.68;100.00
68941;BME280;55982;51.476;7.552;2023-08-06T03:36:20;98632.63;;;14.70;100.00
68941;BME280;55982;51.476;7.552;2023-08-06T03:38:46;98639.56;;;14.58;100.00
68941;BME280;55982;51.476;7.552;2023-08-06T03:41:12;98638.66;;;14.59;100.00
68941;BME280;55982;51.476;7.552;2023-08-06T03:43:37;98637.38;;;14.65;100.00
68941;BME280;55982;51.476;7.552;2023-08-06T03:46:02;98641.59;;;14.68;100.00
68941;BME280;55982;51.476;7.552;2023-08-06T03:48:28;98643.19;;;14.83;100.00
68941;BME280;55982;51.476;7.552;2023-08-06T03:50:53;98636.53;;;14.90;100.00
68941;BME280;55982;51.476;7.552;2023-08-06T03:53:18;98631.06;;;14.68;100.00
68941;BME280;55982;51.476;7.552;2023-08-06T03:55:44;98630.84;;;14.71;100.00
68941;BME280;55982;51.476;7.552;2023-08-06T03:58:09;98628.72;;;14.76;100.00
68941;BME280;55982;51.476;7.552;2023-08-06T04:00:35;98627.06;;;14.75;100.00
68941;BME280;55982;51.476;7.552;2023-08-06T04:03:00;98634.00;;;14.76;100.00
68941;BME280;55982;51.476;7.552;2023-08-06T04:05:25;98632.09;;;14.78;100.00
68941;BME280;55982;51.476;7.552;2023-08-06T04:07:50;98630.44;;;14.77;100.00
68941;BME280;55982;51.476;7.552;2023-08-06T04:10:16;98635.47;;;14.80;100.00
68941;BME280;55982;51.476;7.552;2023-08-06T04:12:41;98623.25;;;14.91;100.00
68941;BME280;55982;51.476;7.552;2023-08-06T04:15:07;98621.34;;;15.06;100.00
68941;BME280;55982;51.476;7.552;2023-08-06T04:17:32;98629.38;;;14.92;100.00
68941;BME280;55982;51.476;7.552;2023-08-06T04:19:58;98611.00;;;15.03;100.00
68941;BME280;55982;51.476;7.552;2023-08-06T04:22:24;98622.19;;;14.94;100.00
68941;BME280;55982;51.476;7.552;2023-08-06T04:24:50;98619.78;;;14.91;100.00
68941;BME280;55982;51.476;7.552;2023-08-06T04:27:16;98620.53;;;14.80;100.00
68941;BME280;55982;51.476;7.552;2023-08-06T04:29:42;98618.00;;;14.79;100.00
68941;BME280;55982;51.476;7.552;2023-08-06T04:32:09;98619.16;;;14.75;100.00
68941;BME280;55982;51.476;7.552;2023-08-06T04:34:36;98618.41;;;14.73;100.00
68941;BME280;55982;51.476;7.552;2023-08-06T04:37:03;98623.47;;;14.76;100.00
68941;BME280;55982;51.476;7.552;2023-08-06T04:39:29;98623.69;;;14.73;100.00
68941;BME280;55982;51.476;7.552;2023-08-06T04:41:55;98617.69;;;14.71;100.00
68941;BME280;55982;51.476;7.552;2023-08-06T04:44:21;98618.41;;;14.73;100.00
68941;BME280;55982;51.476;7.552;2023-08-06T04:46:46;98611.25;;;14.75;100.00
68941;BME280;55982;51.476;7.552;2023-08-06T04:49:12;98628.53;;;14.79;100.00
68941;BME280;55982;51.476;7.552;2023-08-06T04:51:37;98615.38;;;14.79;100.00
68941;BME280;55982;51.476;7.552;2023-08-06T04:54:03;98612.50;;;14.82;100.00
68941;BME280;55982;51.476;7.552;2023-08-06T04:56:29;98616.72;;;14.84;100.00
68941;BME280;55982;51.476;7.552;2023-08-06T04:58:54;98623.59;;;14.87;100.00
68941;BME280;55982;51.476;7.552;2023-08-06T05:01:20;98619.88;;;15.02;100.00
68941;BME280;55982;51.476;7.552;2023-08-06T05:03:47;98626.19;;;15.12;100.00
68941;BME280;55982;51.476;7.552;2023-08-06T05:06:12;98629.63;;;15.25;100.00
68941;BME280;55982;51.476;7.552;2023-08-06T05:08:38;98644.66;;;15.35;100.00
68941;BME280;55982;51.476;7.552;2023-08-06T05:11:03;98628.88;;;15.48;100.00
68941;BME280;55982;51.476;7.552;2023-08-06T05:13:28;98633.53;;;15.44;100.00
68941;BME280;55982;51.476;7.552;2023-08-06T05:15:54;98637.50;;;15.50;100.00
68941;BME280;55982;51.476;7.552;2023-08-06T05:18:20;98640.22;;;15.61;100.00
68941;BME280;55982;51.476;7.552;2023-08-06T05:20:45;98639.19;;;15.51;100.00
68941;BME280;55982;51.476;7.552;2023-08-06T05:23:11;98636.97;;;15.57;100.00
68941;BME280;55982;51.476;7.552;2023-08-06T05:25:40;98640.22;;;15.61;100.00
68941;BME280;55982;51.476;7.552;2023-08-06T05:28:05;98646.88;;;15.78;100.00
68941;BME280;55982;51.476;7.552;2023-08-06T05:30:31;98629.28;;;15.78;100.00
68941;BME280;55982;51.476;7.552;2023-08-06T05:32:56;98630.00;;;15.80;100.00
68941;BME280;55982;51.476;7.552;2023-08-06T05:35:22;98635.16;;;16.05;100.00
68941;BME280;55982;51.476;7.552;2023-08-06T05:37:48;98627.75;;;16.10;100.00
68941;BME280;55982;51.476;7.552;2023-08-06T05:40:15;98624.59;;;16.05;100.00
68941;BME280;55982;51.476;7.552;2023-08-06T05:42:40;98627.56;;;16.01;100.00
68941;BME280;55982;51.476;7.552;2023-08-06T05:45:07;98625.31;;;15.96;100.00
68941;BME280;55982;51.476;7.552;2023-08-06T05:47:32;98619.47;;;15.80;100.00
68941;BME280;55982;51.476;7.552;2023-08-06T05:49:58;98627.41;;;15.91;100.00
68941;BME280;55982;51.476;7.552;2023-08-06T05:52:23;98626.19;;;16.08;100.00
68941;BME280;55982;51.476;7.552;2023-08-06T05:54:49;98621.78;;;16.19;100.00
68941;BME280;55982;51.476;7.552;2023-08-06T05:57:15;98618.94;;;16.33;100.00
68941;BME280;55982;51.476;7.552;2023-08-06T05:59:40;98622.44;;;16.34;100.00
68941;BME280;55982;51.476;7.552;2023-08-06T06:02:06;98615.88;;;16.51;100.00
68941;BME280;55982;51.476;7.552;2023-08-06T06:04:31;98624.31;;;16.56;100.00
68941;BME280;55982;51.476;7.552;2023-08-06T06:06:57;98626.50;;;16.73;100.00
68941;BME280;55982;51.476;7.552;2023-08-06T06:09:22;98625.06;;;16.91;100.00
68941;BME280;55982;51.476;7.552;2023-08-06T06:11:48;98626.72;;;16.70;100.00
68941;BME280;55982;51.476;7.552;2023-08-06T06:14:18;98627.97;;;16.77;100.00
68941;BME280;55982;51.476;7.552;2023-08-06T06:16:44;98618.97;;;17.01;100.00
68941;BME280;55982;51.476;7.552;2023-08-06T06:19:10;98618.34;;;16.87;100.00
68941;BME280;55982;51.476;7.552;2023-08-06T06:21:35;98621.25;;;17.17;100.00
68941;BME280;55982;51.476;7.552;2023-08-06T06:24:05;98618.94;;;17.57;100.00
68941;BME280;55982;51.476;7.552;2023-08-06T06:26:32;98613.19;;;17.83;100.00
68941;BME280;55982;51.476;7.552;2023-08-06T06:28:58;98607.13;;;18.03;100.00
68941;BME280;55982;51.476;7.552;2023-08-06T06:31:25;98610.56;;;18.15;100.00
68941;BME280;55982;51.476;7.552;2023-08-06T06:33:50;98612.84;;;17.88;100.00
68941;BME280;55982;51.476;7.552;2023-08-06T06:36:18;98612.22;;;18.16;100.00
68941;BME280;55982;51.476;7.552;2023-08-06T06:38:46;98611.53;;;18.35;100.00
68941;BME280;55982;51.476;7.552;2023-08-06T06:41:14;98613.94;;;18.79;100.00
68941;BME280;55982;51.476;7.552;2023-08-06T06:43:40;98616.16;;;19.04;100.00
68941;BME280;55982;51.476;7.552;2023-08-06T06:46:05;98611.59;;;19.36;100.00
68941;BME280;55982;51.476;7.552;2023-08-06T06:48:32;98609.94;;;19.54;100.00
68941;BME280;55982;51.476;7.552;2023-08-06T06:50:59;98611.13;;;19.80;100.00
68941;BME280;55982;51.476;7.552;2023-08-06T06:53:25;98603.94;;;19.62;100.00
68941;BME280;55982;51.476;7.552;2023-08-06T06:56:01;98615.56;;;19.70;100.00
68941;BME280;55982;51.476;7.552;2023-08-06T06:58:28;98604.66;;;19.73;100.00
68941;BME280;55982;51.476;7.552;2023-08-06T07:00:56;98606.53;;;20.11;100.00
68941;BME280;55982;51.476;7.552;2023-08-06T07:03:21;98597.97;;;20.17;100.00
68941;BME280;55982;51.476;7.552;2023-08-06T07:05:47;98595.47;;;19.87;100.00
68941;BME280;55982;51.476;7.552;2023-08-06T07:08:13;98602.84;;;19.74;100.00
68941;BME280;55982;51.476;7.552;2023-08-06T07:10:40;98599.38;;;19.92;100.00
68941;BME280;55982;51.476;7.552;2023-08-06T07:13:06;98593.50;;;19.89;100.00
68941;BME280;55982;51.476;7.552;2023-08-06T07:15:32;98607.19;;;19.84;100.00
68941;BME280;55982;51.476;7.552;2023-08-06T07:17:57;98598.41;;;20.03;100.00
68941;BME280;55982;51.476;7.552;2023-08-06T07:20:23;98608.91;;;20.24;100.00
68941;BME280;55982;51.476;7.552;2023-08-06T07:22:49;98603.19;;;20.19;100.00
68941;BME280;55982;51.476;7.552;2023-08-06T07:25:16;98597.16;;;19.97;100.00
68941;BME280;55982;51.476;7.552;2023-08-06T07:27:41;98600.50;;;20.57;100.00
68941;BME280;55982;51.476;7.552;2023-08-06T07:30:07;98608.06;;;20.33;100.00
68941;BME280;55982;51.476;7.552;2023-08-06T07:32:33;98622.53;;;20.86;100.00
68941;BME280;55982;51.476;7.552;2023-08-06T07:34:59;98611.34;;;20.73;100.00
68941;BME280;55982;51.476;7.552;2023-08-06T07:37:28;98610.72;;;20.98;100.00
68941;BME280;55982;51.476;7.552;2023-08-06T07:39:54;98620.09;;;20.27;100.00
68941;BME280;55982;51.476;7.552;2023-08-06T07:42:20;98622.59;;;20.29;100.00
68941;BME280;55982;51.476;7.552;2023-08-06T07:44:56;98620.06;;;20.56;100.00
68941;BME280;55982;51.476;7.552;2023-08-06T07:47:22;98629.31;;;20.33;100.00
68941;BME280;55982;51.476;7.552;2023-08-06T07:49:48;98627.00;;;19.61;100.00
68941;BME280;55982;51.476;7.552;2023-08-06T07:52:13;98631.59;;;19.29;100.00
68941;BME280;55982;51.476;7.552;2023-08-06T07:54:39;98624.03;;;19.15;100.00
68941;BME280;55982;51.476;7.552;2023-08-06T07:57:05;98628.38;;;19.65;100.00
68941;BME280;55982;51.476;7.552;2023-08-06T07:59:30;98628.66;;;19.62;100.00
68941;BME280;55982;51.476;7.552;2023-08-06T08:01:56;98632.78;;;19.36;100.00
68941;BME280;55982;51.476;7.552;2023-08-06T08:04:22;98629.16;;;19.37;100.00
68941;BME280;55982;51.476;7.552;2023-08-06T08:06:47;98627.22;;;19.39;100.00
68941;BME280;55982;51.476;7.552;2023-08-06T08:09:13;98618.38;;;18.99;100.00
68941;BME280;55982;51.476;7.552;2023-08-06T08:11:39;98628.44;;;19.05;100.00
68941;BME280;55982;51.476;7.552;2023-08-06T08:14:05;98630.63;;;19.00;100.00
68941;BME280;55982;51.476;7.552;2023-08-06T08:16:30;98634.22;;;19.40;100.00
68941;BME280;55982;51.476;7.552;2023-08-06T08:18:55;98629.00;;;19.78;100.00
68941;BME280;55982;51.476;7.552;2023-08-06T08:21:21;98625.16;;;19.62;100.00
68941;BME280;55982;51.476;7.552;2023-08-06T08:23:46;98623.31;;;19.43;100.00
68941;BME280;55982;51.476;7.552;2023-08-06T08:26:11;98624.50;;;19.88;100.00
68941;BME280;55982;51.476;7.552;2023-08-06T08:28:37;98620.63;;;20.12;100.00
68941;BME280;55982;51.476;7.552;2023-08-06T08:31:02;98630.63;;;19.70;100.00
68941;BME280;55982;51.476;7.552;2023-08-06T08:33:27;98621.06;;;19.39;100.00
68941;BME280;55982;51.476;7.552;2023-08-06T08:35:53;98639.00;;;18.95;100.00
68941;BME280;55982;51.476;7.552;2023-08-06T08:38:18;98634.69;;;18.74;100.00
68941;BME280;55982;51.476;7.552;2023-08-06T08:40:46;98632.13;;;18.63;100.00
68941;BME280;55982;51.476;7.552;2023-08-06T08:43:15;98626.50;;;18.77;100.00
68941;BME280;55982;51.476;7.552;2023-08-06T08:45:42;98637.28;;;19.15;100.00
68941;BME280;55982;51.476;7.552;2023-08-06T08:48:09;98631.00;;;19.46;100.00
68941;BME280;55982;51.476;7.552;2023-08-06T08:50:36;98635.59;;;19.44;100.00
68941;BME280;55982;51.476;7.552;2023-08-06T08:53:02;98635.03;;;19.41;100.00
68941;BME280;55982;51.476;7.552;2023-08-06T08:55:28;98630.63;;;19.70;100.00
68941;BME280;55982;51.476;7.552;2023-08-06T08:57:53;98627.16;;;19.88;100.00
68941;BME280;55982;51.476;7.552;2023-08-06T09:00:19;98635.59;;;19.44;100.00
68941;BME280;55982;51.476;7.552;2023-08-06T09:02:45;98643.56;;;20.03;100.00
68941;BME280;55982;51.476;7.552;2023-08-06T09:05:12;98641.78;;;20.23;100.00
68941;BME280;55982;51.476;7.552;2023-08-06T09:07:42;98644.44;;;20.42;100.00
68941;BME280;55982;51.476;7.552;2023-08-06T09:10:11;98649.28;;;20.18;100.00
68941;BME280;55982;51.476;7.552;2023-08-06T09:12:37;98652.84;;;19.69;100.00
68941;BME280;55982;51.476;7.552;2023-08-06T09:15:03;98651.56;;;19.63;100.00
68941;BME280;55982;51.476;7.552;2023-08-06T09:17:28;98651.41;;;20.24;100.00
68941;BME280;55982;51.476;7.552;2023-08-06T09:19:54;98635.78;;;20.21;100.00
68941;BME280;55982;51.476;7.552;2023-08-06T09:22:19;98644.69;;;20.20;100.00
68941;BME280;55982;51.476;7.552;2023-08-06T09:24:45;98642.72;;;20.41;100.00
68941;BME280;55982;51.476;7.552;2023-08-06T09:27:14;98635.72;;;20.68;100.00
68941;BME280;55982;51.476;7.552;2023-08-06T09:29:43;98634.03;;;20.67;100.00
68941;BME280;55982;51.476;7.552;2023-08-06T09:32:10;98638.19;;;20.89;100.00
68941;BME280;55982;51.476;7.552;2023-08-06T09:34:39;98637.63;;;20.95;100.00
68941;BME280;55982;51.476;7.552;2023-08-06T09:37:04;98640.66;;;21.10;100.00
68941;BME280;55982;51.476;7.552;2023-08-06T09:39:30;98643.84;;;21.23;100.00
68941;BME280;55982;51.476;7.552;2023-08-06T09:42:00;98643.09;;;21.40;100.00
68941;BME280;55982;51.476;7.552;2023-08-06T09:44:28;98641.34;;;21.48;100.00
68941;BME280;55982;51.476;7.552;2023-08-06T09:46:55;98636.69;;;21.77;100.00
68941;BME280;55982;51.476;7.552;2023-08-06T09:49:25;98649.63;;;20.99;100.00
68941;BME280;55982;51.476;7.552;2023-08-06T09:51:51;98653.69;;;21.49;100.00
68941;BME280;55982;51.476;7.552;2023-08-06T09:54:18;98653.50;;;21.24;100.00
68941;BME280;55982;51.476;7.552;2023-08-06T09:56:44;98662.47;;;21.13;100.00
68941;BME280;55982;51.476;7.552;2023-08-06T09:59:10;98652.78;;;20.66;100.00
68941;BME280;55982;51.476;7.552;2023-08-06T10:01:37;98665.38;;;20.45;100.00
68941;BME280;55982;51.476;7.552;2023-08-06T10:04:03;98663.81;;;20.14;100.00
68941;BME280;55982;51.476;7.552;2023-08-06T10:06:29;98662.50;;;19.79;100.00
68941;BME280;55982;51.476;7.552;2023-08-06T10:08:55;98674.31;;;19.26;100.00
68941;BME280;55982;51.476;7.552;2023-08-06T10:11:24;98674.25;;;19.37;100.00
68941;BME280;55982;51.476;7.552;2023-08-06T10:14:16;98681.00;;;19.21;100.00
68941;BME280;55982;51.476;7.552;2023-08-06T10:16:41;98680.06;;;19.61;100.00
68941;BME280;55982;51.476;7.552;2023-08-06T10:19:09;98678.84;;;19.35;100.00
68941;BME280;55982;51.476;7.552;2023-08-06T10:21:35;98679.78;;;19.04;100.00
68941;BME280;55982;51.476;7.552;2023-08-06T10:24:01;98685.97;;;19.14;100.00
68941;BME280;55982;51.476;7.552;2023-08-06T10:26:29;98680.00;;;18.91;100.00
68941;BME280;55982;51.476;7.552;2023-08-06T10:28:55;98691.19;;;19.25;100.00
68941;BME280;55982;51.476;7.552;2023-08-06T10:31:58;98681.38;;;19.46;100.00
68941;BME280;55982;51.476;7.552;2023-08-06T10:34:25;98670.63;;;19.87;100.00
68941;BME280;55982;51.476;7.552;2023-08-06T10:36:54;98683.91;;;19.38;100.00
68941;BME280;55982;51.476;7.552;2023-08-06T10:39:19;98668.91;;;19.67;100.00
68941;BME280;55982;51.476;7.552;2023-08-06T10:41:44;98663.44;;;20.28;100.00
68941;BME280;55982;51.476;7.552;2023-08-06T10:44:11;98664.53;;;20.35;100.00
68941;BME280;55982;51.476;7.552;2023-08-06T10:46:37;98665.22;;;20.56;100.00
68941;BME280;55982;51.476;7.552;2023-08-06T10:49:03;98660.59;;;20.77;100.00
68941;BME280;55982;51.476;7.552;2023-08-06T10:51:30;98664.00;;;21.25;100.00
68941;BME280;55982;51.476;7.552;2023-08-06T10:53:56;98651.88;;;21.67;100.00
68941;BME280;55982;51.476;7.552;2023-08-06T10:56:24;98658.81;;;21.60;100.00
68941;BME280;55982;51.476;7.552;2023-08-06T10:58:56;98655.16;;;21.89;100.00
68941;BME280;55982;51.476;7.552;2023-08-06T11:01:28;98645.97;;;22.36;100.00
68941;BME280;55982;51.476;7.552;2023-08-06T11:03:54;98650.09;;;22.65;100.00
68941;BME280;55982;51.476;7.552;2023-08-06T11:06:21;98649.56;;;22.62;100.00
68941;BME280;55982;51.476;7.552;2023-08-06T11:08:52;98656.88;;;22.60;100.00
68941;BME280;55982;51.476;7.552;2023-08-06T11:11:18;98656.06;;;22.85;100.00
68941;BME280;55982;51.476;7.552;2023-08-06T11:13:45;98653.31;;;23.28;100.00
68941;BME280;55982;51.476;7.552;2023-08-06T11:16:12;98654.50;;;23.00;100.00
68941;BME280;55982;51.476;7.552;2023-08-06T11:18:39;98655.72;;;22.10;100.00
68941;BME280;55982;51.476;7.552;2023-08-06T11:21:05;98658.06;;;21.68;100.00
68941;BME280;55982;51.476;7.552;2023-08-06T11:23:30;98661.81;;;20.92;100.00
68941;BME280;55982;51.476;7.552;2023-08-06T11:25:57;98660.63;;;20.39;100.00
68941;BME280;55982;51.476;7.552;2023-08-06T11:28:22;98662.75;;;21.20;100.00
68941;BME280;55982;51.476;7.552;2023-08-06T11:30:51;98661.31;;;21.25;100.00
68941;BME280;55982;51.476;7.552;2023-08-06T11:33:24;98662.78;;;21.10;100.00
68941;BME280;55982;51.476;7.552;2023-08-06T11:35:54;98659.41;;;21.18;100.00
68941;BME280;55982;51.476;7.552;2023-08-06T11:38:20;98663.38;;;20.85;100.00
68941;BME280;55982;51.476;7.552;2023-08-06T11:40:45;98660.06;;;20.64;100.00
68941;BME280;55982;51.476;7.552;2023-08-06T11:43:14;98650.53;;;20.71;100.00
68941;BME280;55982;51.476;7.552;2023-08-06T11:45:40;98655.84;;;20.80;100.00
68941;BME280;55982;51.476;7.552;2023-08-06T11:48:06;98655.50;;;21.12;100.00
68941;BME280;55982;51.476;7.552;2023-08-06T11:50:36;98658.41;;;20.63;100.00
68941;BME280;55982;51.476;7.552;2023-08-06T11:53:02;98664.28;;;20.38;100.00
68941;BME280;55982;51.476;7.552;2023-08-06T11:55:28;98661.31;;;20.60;100.00
68941;BME280;55982;51.476;7.552;2023-08-06T11:57:54;98658.81;;;20.49;100.00
68941;BME280;55982;51.476;7.552;2023-08-06T12:00:22;98662.41;;;20.86;100.00
68941;BME280;55982;51.476;7.552;2023-08-06T12:02:48;98664.53;;;20.54;100.00
68941;BME280;55982;51.476;7.552;2023-08-06T12:05:17;98661.25;;;21.44;100.00
68941;BME280;55982;51.476;7.552;2023-08-06T12:07:48;98655.78;;;22.18;100.00
68941;BME280;55982;51.476;7.552;2023-08-06T12:10:15;98659.38;;;22.61;100.00
68941;BME280;55982;51.476;7.552;2023-08-06T12:12:41;98658.63;;;23.20;100.00
68941;BME280;55982;51.476;7.552;2023-08-06T12:15:07;98657.91;;;23.10;100.00
68941;BME280;55982;51.476;7.552;2023-08-06T12:17:34;98661.16;;;23.47;100.00
68941;BME280;55982;51.476;7.552;2023-08-06T12:19:59;98665.13;;;23.43;100.00
68941;BME280;55982;51.476;7.552;2023-08-06T12:22:26;98668.44;;;23.37;100.00
68941;BME280;55982;51.476;7.552;2023-08-06T12:24:51;98659.94;;;22.91;100.00
68941;BME280;55982;51.476;7.552;2023-08-06T12:27:17;98662.22;;;23.11;100.00
68941;BME280;55982;51.476;7.552;2023-08-06T12:29:47;98669.22;;;22.61;100.00
68941;BME280;55982;51.476;7.552;2023-08-06T12:32:13;98677.88;;;22.28;100.00
68941;BME280;55982;51.476;7.552;2023-08-06T12:34:40;98680.78;;;21.62;100.00
68941;BME280;55982;51.476;7.552;2023-08-06T12:37:06;98667.19;;;20.63;100.00
68941;BME280;55982;51.476;7.552;2023-08-06T12:39:32;98678.25;;;20.59;100.00
68941;BME280;55982;51.476;7.552;2023-08-06T12:41:59;98684.06;;;19.95;100.00
68941;BME280;55982;51.476;7.552;2023-08-06T12:44:25;98699.94;;;19.76;100.00
68941;BME280;55982;51.476;7.552;2023-08-06T12:46:51;98711.06;;;19.10;100.00